sensor_id;sensor_type;location;lat;lon;timestamp;P1;durP1;ratioP1;P2;durP2;ratioP2
3875;SDS011;1953;51.222;6.624;2023-05-03T00:00:54;13.27;;;7.83;;
3875;SDS011;1953;51.222;6.624;2023-05-03T00:05:40;13.10;;;8.23;;
3875;SDS011;1953;51.222;6.624;2023-05-03T00:11:20;9.07;;;6.60;;
3875;SDS011;1953;51.222;6.624;2023-05-03T00:16:03;18.20;;;7.47;;
3875;SDS011;1953;51.222;6.624;2023-05-03T00:20:46;15.43;;;8.00;;
3875;SDS011;1953;51.222;6.624;2023-05-03T00:25:29;15.90;;;7.87;;
3875;SDS011;1953;51.222;6.624;2023-05-03T00:30:13;11.77;;;8.10;;
3875;SDS011;1953;51.222;6.624;2023-05-03T00:34:57;12.37;;;7.67;;
3875;SDS011;1953;51.222;6.624;2023-05-03T00:39:40;11.93;;;7.67;;
3875;SDS011;1953;51.222;6.624;2023-05-03T00:44:22;12.30;;;7.53;;
3875;SDS011;1953;51.222;6.624;2023-05-03T00:49:06;12.27;;;7.87;;
3875;SDS011;1953;51.222;6.624;2023-05-03T00:53:49;13.03;;;8.20;;
3875;SDS011;1953;51.222;6.624;2023-05-03T00:58:32;12.70;;;8.10;;
3875;SDS011;1953;51.222;6.624;2023-05-03T01:03:16;15.70;;;9.13;;
3875;SDS011;1953;51.222;6.624;2023-05-03T01:08:00;14.43;;;8.60;;
3875;SDS011;1953;51.222;6.624;2023-05-03T01:13:00;22.43;;;8.83;;
3875;SDS011;1953;51.222;6.624;2023-05-03T01:17:49;15.13;;;8.30;;
3875;SDS011;1953;51.222;6.624;2023-05-03T01:22:37;16.37;;;8.20;;
3875;SDS011;1953;51.222;6.624;2023-05-03T01:27:26;13.77;;;8.10;;
3875;SDS011;1953;51.222;6.624;2023-05-03T01:32:10;12.93;;;8.10;;
3875;SDS011;1953;51.222;6.624;2023-05-03T01:37:01;18.13;;;8.37;;
3875;SDS011;1953;51.222;6.624;2023-05-03T01:41:45;14.97;;;8.20;;
3875;SDS011;1953;51.222;6.624;2023-05-03T01:46:32;14.17;;;8.80;;
3875;SDS011;1953;51.222;6.624;2023-05-03T01:51:14;12.27;;;8.30;;
3875;SDS011;1953;51.222;6.624;2023-05-03T01:55:57;15.43;;;8.70;;
3875;SDS011;1953;51.222;6.624;2023-05-03T02:00:39;13.33;;;8.80;;
3875;SDS011;1953;51.222;6.624;2023-05-03T02:05:23;14.53;;;7.83;;
3875;SDS011;1953;51.222;6.624;2023-05-03T02:10:07;14.60;;;9.03;;
3875;SDS011;1953;51.222;6.624;2023-05-03T02:14:54;15.57;;;9.37;;
3875;SDS011;1953;51.222;6.624;2023-05-03T02:19:36;15.40;;;8.90;;
3875;SDS011;1953;51.222;6.624;2023-05-03T02:24:20;16.30;;;8.37;;
3875;SDS011;1953;51.222;6.624;2023-05-03T02:29:03;14.27;;;8.70;;
3875;SDS011;1953;51.222;6.624;2023-05-03T02:33:47;16.80;;;9.00;;
3875;SDS011;1953;51.222;6.624;2023-05-03T02:38:29;15.30;;;8.77;;
3875;SDS011;1953;51.222;6.624;2023-05-03T02:43:13;16.70;;;8.70;;
3875;SDS011;1953;51.222;6.624;2023-05-03T02:47:55;18.00;;;9.20;;
3875;SDS011;1953;51.222;6.624;2023-05-03T02:52:39;14.40;;;9.40;;
3875;SDS011;1953;51.222;6.624;2023-05-03T02:57:21;13.83;;;9.07;;
3875;SDS011;1953;51.222;6.624;2023-05-03T03:02:05;15.27;;;9.10;;
3875;SDS011;1953;51.222;6.624;2023-05-03T03:06:48;21.23;;;9.70;;
3875;SDS011;1953;51.222;6.624;2023-05-03T03:11:33;13.80;;;9.10;;
3875;SDS011;1953;51.222;6.624;2023-05-03T03:16:15;18.97;;;10.07;;
3875;SDS011;1953;51.222;6.624;2023-05-03T03:20:59;15.70;;;10.00;;
3875;SDS011;1953;51.222;6.624;2023-05-03T03:25:42;17.30;;;10.37;;
3875;SDS011;1953;51.222;6.624;2023-05-03T03:30:25;18.43;;;10.93;;
3875;SDS011;1953;51.222;6.624;2023-05-03T03:35:08;17.53;;;10.27;;
3875;SDS011;1953;51.222;6.624;2023-05-03T03:39:53;14.70;;;10.87;;
3875;SDS011;1953;51.222;6.624;2023-05-03T03:44:36;16.97;;;10.80;;
3875;SDS011;1953;51.222;6.624;2023-05-03T03:49:18;17.23;;;12.17;;
3875;SDS011;1953;51.222;6.624;2023-05-03T03:54:01;18.80;;;11.43;;
3875;SDS011;1953;51.222;6.624;2023-05-03T03:58:45;14.73;;;11.17;;
3875;SDS011;1953;51.222;6.624;2023-05-03T04:03:28;19.77;;;12.13;;
3875;SDS011;1953;51.222;6.624;2023-05-03T04:08:10;18.60;;;11.93;;
3875;SDS011;1953;51.222;6.624;2023-05-03T04:12:53;21.67;;;12.20;;
3875;SDS011;1953;51.222;6.624;2023-05-03T04:17:37;21.70;;;13.23;;
3875;SDS011;1953;51.222;6.624;2023-05-03T04:22:20;20.27;;;13.40;;
3875;SDS011;1953;51.222;6.624;2023-05-03T04:27:02;20.37;;;13.30;;
3875;SDS011;1953;51.222;6.624;2023-05-03T04:31:45;28.00;;;13.23;;
3875;SDS011;1953;51.222;6.624;2023-05-03T04:36:29;19.37;;;12.83;;
3875;SDS011;1953;51.222;6.624;2023-05-03T04:41:11;28.23;;;14.37;;
3875;SDS011;1953;51.222;6.624;2023-05-03T04:45:54;21.00;;;12.70;;
3875;SDS011;1953;51.222;6.624;2023-05-03T04:50:36;22.43;;;13.17;;
3875;SDS011;1953;51.222;6.624;2023-05-03T04:55:20;24.07;;;14.10;;
3875;SDS011;1953;51.222;6.624;2023-05-03T05:00:03;25.30;;;13.60;;
3875;SDS011;1953;51.222;6.624;2023-05-03T05:04:50;22.40;;;14.40;;
3875;SDS011;1953;51.222;6.624;2023-05-03T05:09:33;21.07;;;14.27;;
3875;SDS011;1953;51.222;6.624;2023-05-03T05:14:17;20.63;;;13.50;;
3875;SDS011;1953;51.222;6.624;2023-05-03T05:18:59;20.93;;;14.10;;
3875;SDS011;1953;51.222;6.624;2023-05-03T05:23:42;21.13;;;14.30;;
3875;SDS011;1953;51.222;6.624;2023-05-03T05:28:25;23.40;;;14.10;;
3875;SDS011;1953;51.222;6.624;2023-05-03T05:33:09;25.00;;;14.57;;
3875;SDS011;1953;51.222;6.624;2023-05-03T05:37:52;23.23;;;13.93;;
3875;SDS011;1953;51.222;6.624;2023-05-03T05:42:34;23.60;;;13.83;;
3875;SDS011;1953;51.222;6.624;2023-05-03T05:47:17;28.47;;;14.50;;
3875;SDS011;1953;51.222;6.624;2023-05-03T05:52:00;25.07;;;13.97;;
3875;SDS011;1953;51.222;6.624;2023-05-03T05:56:43;21.77;;;13.63;;
3875;SDS011;1953;51.222;6.624;2023-05-03T06:01:26;21.20;;;13.67;;
3875;SDS011;1953;51.222;6.624;2023-05-03T06:06:08;20.00;;;13.57;;
3875;SDS011;1953;51.222;6.624;2023-05-03T06:10:52;26.17;;;13.10;;
3875;SDS011;1953;51.222;6.624;2023-05-03T06:15:35;21.57;;;13.40;;
3875;SDS011;1953;51.222;6.624;2023-05-03T06:20:17;20.60;;;14.50;;
3875;SDS011;1953;51.222;6.624;2023-05-03T06:25:00;27.67;;;13.83;;
3875;SDS011;1953;51.222;6.624;2023-05-03T06:29:45;19.50;;;14.10;;
3875;SDS011;1953;51.222;6.624;2023-05-03T06:34:29;23.30;;;13.63;;
3875;SDS011;1953;51.222;6.624;2023-05-03T06:39:12;19.43;;;12.77;;
3875;SDS011;1953;51.222;6.624;2023-05-03T06:43:54;18.57;;;12.67;;
3875;SDS011;1953;51.222;6.624;2023-05-03T06:48:38;17.40;;;12.07;;
3875;SDS011;1953;51.222;6.624;2023-05-03T06:53:21;17.20;;;13.30;;
3875;SDS011;1953;51.222;6.624;2023-05-03T06:58:04;21.20;;;12.27;;
3875;SDS011;1953;51.222;6.624;2023-05-03T07:02:49;23.33;;;11.27;;
3875;SDS011;1953;51.222;6.624;2023-05-03T07:07:33;18.70;;;11.00;;
3875;SDS011;1953;51.222;6.624;2023-05-03T07:12:16;16.30;;;10.43;;
3875;SDS011;1953;51.222;6.624;2023-05-03T07:16:58;17.17;;;11.27;;
3875;SDS011;1953;51.222;6.624;2023-05-03T07:21:41;17.23;;;10.37;;
3875;SDS011;1953;51.222;6.624;2023-05-03T07:26:25;18.63;;;9.10;;
3875;SDS011;1953;51.222;6.624;2023-05-03T07:31:07;12.03;;;8.43;;
3875;SDS011;1953;51.222;6.624;2023-05-03T07:35:50;14.73;;;7.30;;
3875;SDS011;1953;51.222;6.624;2023-05-03T07:40:33;11.77;;;7.83;;
3875;SDS011;1953;51.222;6.624;2023-05-03T07:45:16;13.47;;;7.53;;
3875;SDS011;1953;51.222;6.624;2023-05-03T07:50:00;10.83;;;6.47;;
3875;SDS011;1953;51.222;6.624;2023-05-03T07:54:44;11.10;;;6.63;;
3875;SDS011;1953;51.222;6.624;2023-05-03T07:59:27;11.73;;;6.00;;
3875;SDS011;1953;51.222;6.624;2023-05-03T08:04:11;11.20;;;6.40;;
3875;SDS011;1953;51.222;6.624;2023-05-03T08:08:53;9.20;;;6.83;;
3875;SDS011;1953;51.222;6.624;2023-05-03T08:13:36;8.53;;;6.80;;
3875;SDS011;1953;51.222;6.624;2023-05-03T08:18:18;12.93;;;6.87;;
3875;SDS011;1953;51.222;6.624;2023-05-03T08:23:02;13.93;;;6.97;;
3875;SDS011;1953;51.222;6.624;2023-05-03T08:27:45;9.60;;;7.33;;
3875;SDS011;1953;51.222;6.624;2023-05-03T08:32:27;8.63;;;6.30;;
3875;SDS011;1953;51.222;6.624;2023-05-03T08:37:11;10.73;;;7.17;;
3875;SDS011;1953;51.222;6.624;2023-05-03T08:41:54;12.10;;;6.80;;
3875;SDS011;1953;51.222;6.624;2023-05-03T08:46:38;10.90;;;6.77;;
3875;SDS011;1953;51.222;6.624;2023-05-03T08:51:23;11.23;;;7.40;;
3875;SDS011;1953;51.222;6.624;2023-05-03T08:56:07;10.00;;;6.60;;
3875;SDS011;1953;51.222;6.624;2023-05-03T09:00:52;10.90;;;7.60;;
3875;SDS011;1953;51.222;6.624;2023-05-03T09:05:35;10.63;;;6.93;;
3875;SDS011;1953;51.222;6.624;2023-05-03T09:10:21;10.23;;;6.70;;
3875;SDS011;1953;51.222;6.624;2023-05-03T09:15:04;11.13;;;6.73;;
3875;SDS011;1953;51.222;6.624;2023-05-03T09:19:50;10.07;;;8.37;;
3875;SDS011;1953;51.222;6.624;2023-05-03T09:24:34;9.00;;;6.90;;
3875;SDS011;1953;51.222;6.624;2023-05-03T09:29:26;10.40;;;7.20;;
3875;SDS011;1953;51.222;6.624;2023-05-03T09:34:19;12.87;;;7.80;;
3875;SDS011;1953;51.222;6.624;2023-05-03T09:39:04;9.43;;;6.70;;
3875;SDS011;1953;51.222;6.624;2023-05-03T09:43:58;11.00;;;7.60;;
3875;SDS011;1953;51.222;6.624;2023-05-03T09:48:42;8.93;;;6.70;;
3875;SDS011;1953;51.222;6.624;2023-05-03T09:53:25;10.70;;;7.10;;
3875;SDS011;1953;51.222;6.624;2023-05-03T09:58:10;8.70;;;6.73;;
3875;SDS011;1953;51.222;6.624;2023-05-03T10:02:53;11.13;;;6.40;;
3875;SDS011;1953;51.222;6.624;2023-05-03T10:07:39;11.63;;;6.27;;
3875;SDS011;1953;51.222;6.624;2023-05-03T10:12:24;8.87;;;6.57;;
3875;SDS011;1953;51.222;6.624;2023-05-03T10:17:10;13.80;;;7.70;;
3875;SDS011;1953;51.222;6.624;2023-05-03T10:21:58;10.47;;;6.33;;
3875;SDS011;1953;51.222;6.624;2023-05-03T10:26:45;9.43;;;6.57;;
3875;SDS011;1953;51.222;6.624;2023-05-03T10:31:44;9.43;;;6.77;;
3875;SDS011;1953;51.222;6.624;2023-05-03T10:36:28;7.83;;;6.40;;
3875;SDS011;1953;51.222;6.624;2023-05-03T10:41:11;8.63;;;5.50;;
3875;SDS011;1953;51.222;6.624;2023-05-03T10:45:55;9.97;;;6.40;;
3875;SDS011;1953;51.222;6.624;2023-05-03T10:50:37;12.13;;;6.80;;
3875;SDS011;1953;51.222;6.624;2023-05-03T10:55:21;9.33;;;6.37;;
3875;SDS011;1953;51.222;6.624;2023-05-03T11:00:07;15.50;;;6.33;;
3875;SDS011;1953;51.222;6.624;2023-05-03T11:04:56;11.20;;;6.13;;
3875;SDS011;1953;51.222;6.624;2023-05-03T11:09:43;8.93;;;7.03;;
3875;SDS011;1953;51.222;6.624;2023-05-03T11:14:27;10.43;;;7.13;;
3875;SDS011;1953;51.222;6.624;2023-05-03T11:19:10;11.37;;;6.90;;
3875;SDS011;1953;51.222;6.624;2023-05-03T11:23:52;9.40;;;6.70;;
3875;SDS011;1953;51.222;6.624;2023-05-03T11:28:36;8.70;;;6.00;;
3875;SDS011;1953;51.222;6.624;2023-05-03T11:33:20;11.63;;;6.87;;
3875;SDS011;1953;51.222;6.624;2023-05-03T11:38:02;12.90;;;7.57;;
3875;SDS011;1953;51.222;6.624;2023-05-03T11:42:51;12.90;;;7.03;;
3875;SDS011;1953;51.222;6.624;2023-05-03T11:47:35;8.83;;;6.10;;
3875;SDS011;1953;51.222;6.624;2023-05-03T11:52:20;11.90;;;6.93;;
3875;SDS011;1953;51.222;6.624;2023-05-03T11:57:10;16.60;;;8.77;;
3875;SDS011;1953;51.222;6.624;2023-05-03T12:01:54;11.93;;;6.60;;
3875;SDS011;1953;51.222;6.624;2023-05-03T12:06:36;8.60;;;6.43;;
3875;SDS011;1953;51.222;6.624;2023-05-03T12:12:22;10.70;;;7.10;;
3875;SDS011;1953;51.222;6.624;2023-05-03T12:17:04;11.33;;;6.80;;
3875;SDS011;1953;51.222;6.624;2023-05-03T12:21:47;12.17;;;7.40;;
3875;SDS011;1953;51.222;6.624;2023-05-03T12:26:30;11.17;;;7.07;;
3875;SDS011;1953;51.222;6.624;2023-05-03T12:31:13;8.10;;;6.23;;
3875;SDS011;1953;51.222;6.624;2023-05-03T12:35:57;11.43;;;7.40;;
3875;SDS011;1953;51.222;6.624;2023-05-03T12:40:42;10.47;;;6.10;;
3875;SDS011;1953;51.222;6.624;2023-05-03T12:45:25;8.90;;;6.27;;
3875;SDS011;1953;51.222;6.624;2023-05-03T12:50:11;6.70;;;5.90;;
3875;SDS011;1953;51.222;6.624;2023-05-03T12:54:54;9.27;;;5.50;;
3875;SDS011;1953;51.222;6.624;2023-05-03T12:59:36;8.47;;;6.30;;
3875;SDS011;1953;51.222;6.624;2023-05-03T13:04:19;7.47;;;5.73;;
3875;SDS011;1953;51.222;6.624;2023-05-03T13:09:02;9.07;;;5.73;;
3875;SDS011;1953;51.222;6.624;2023-05-03T13:13:46;6.77;;;6.17;;
3875;SDS011;1953;51.222;6.624;2023-05-03T13:18:29;7.13;;;5.67;;
3875;SDS011;1953;51.222;6.624;2023-05-03T13:23:12;6.30;;;5.70;;
3875;SDS011;1953;51.222;6.624;2023-05-03T13:27:55;7.53;;;5.37;;
3875;SDS011;1953;51.222;6.624;2023-05-03T13:32:41;8.40;;;5.50;;
3875;SDS011;1953;51.222;6.624;2023-05-03T13:37:23;5.83;;;5.30;;
3875;SDS011;1953;51.222;6.624;2023-05-03T13:42:06;6.50;;;5.10;;
3875;SDS011;1953;51.222;6.624;2023-05-03T13:46:50;10.33;;;5.50;;
3875;SDS011;1953;51.222;6.624;2023-05-03T13:51:33;7.57;;;5.67;;
3875;SDS011;1953;51.222;6.624;2023-05-03T13:56:16;6.68;;;5.35;;
3875;SDS011;1953;51.222;6.624;2023-05-03T14:00:59;6.20;;;5.68;;
3875;SDS011;1953;51.222;6.624;2023-05-03T14:05:43;7.97;;;5.07;;
3875;SDS011;1953;51.222;6.624;2023-05-03T14:10:26;7.80;;;5.63;;
3875;SDS011;1953;51.222;6.624;2023-05-03T14:15:08;6.20;;;5.15;;
3875;SDS011;1953;51.222;6.624;2023-05-03T14:19:51;7.15;;;6.00;;
3875;SDS011;1953;51.222;6.624;2023-05-03T14:24:35;7.50;;;5.30;;
3875;SDS011;1953;51.222;6.624;2023-05-03T14:29:19;6.13;;;5.57;;
3875;SDS011;1953;51.222;6.624;2023-05-03T14:34:03;6.22;;;5.38;;
3875;SDS011;1953;51.222;6.624;2023-05-03T14:38:46;6.68;;;5.03;;
3875;SDS011;1953;51.222;6.624;2023-05-03T14:43:30;5.97;;;5.32;;
3875;SDS011;1953;51.222;6.624;2023-05-03T14:48:13;6.68;;;5.97;;
3875;SDS011;1953;51.222;6.624;2023-05-03T14:52:56;7.68;;;5.63;;
3875;SDS011;1953;51.222;6.624;2023-05-03T14:57:39;9.63;;;5.72;;
3875;SDS011;1953;51.222;6.624;2023-05-03T15:02:22;7.40;;;5.43;;
3875;SDS011;1953;51.222;6.624;2023-05-03T15:07:06;6.43;;;5.82;;
3875;SDS011;1953;51.222;6.624;2023-05-03T15:11:49;6.05;;;5.45;;
3875;SDS011;1953;51.222;6.624;2023-05-03T15:16:31;7.18;;;5.10;;
3875;SDS011;1953;51.222;6.624;2023-05-03T15:21:17;6.43;;;5.80;;
3875;SDS011;1953;51.222;6.624;2023-05-03T15:26:00;8.25;;;5.85;;
3875;SDS011;1953;51.222;6.624;2023-05-03T15:30:42;7.07;;;5.90;;
3875;SDS011;1953;51.222;6.624;2023-05-03T15:35:25;8.75;;;6.22;;
3875;SDS011;1953;51.222;6.624;2023-05-03T15:40:09;7.28;;;6.30;;
3875;SDS011;1953;51.222;6.624;2023-05-03T15:44:53;8.02;;;6.43;;
3875;SDS011;1953;51.222;6.624;2023-05-03T15:49:35;8.65;;;6.90;;
3875;SDS011;1953;51.222;6.624;2023-05-03T15:54:18;8.13;;;7.32;;
3875;SDS011;1953;51.222;6.624;2023-05-03T15:59:02;10.20;;;6.67;;
3875;SDS011;1953;51.222;6.624;2023-05-03T16:03:45;7.03;;;6.27;;
3875;SDS011;1953;51.222;6.624;2023-05-03T16:08:27;6.70;;;5.90;;
3875;SDS011;1953;51.222;6.624;2023-05-03T16:13:10;6.80;;;6.10;;
3875;SDS011;1953;51.222;6.624;2023-05-03T16:17:54;6.80;;;6.10;;
3875;SDS011;1953;51.222;6.624;2023-05-03T16:22:36;10.33;;;6.93;;
3875;SDS011;1953;51.222;6.624;2023-05-03T16:27:19;11.93;;;6.00;;
3875;SDS011;1953;51.222;6.624;2023-05-03T16:32:02;8.80;;;6.60;;
3875;SDS011;1953;51.222;6.624;2023-05-03T16:36:47;10.73;;;6.37;;
3875;SDS011;1953;51.222;6.624;2023-05-03T16:41:30;7.40;;;6.40;;
3875;SDS011;1953;51.222;6.624;2023-05-03T16:46:12;16.17;;;7.07;;
3875;SDS011;1953;51.222;6.624;2023-05-03T16:50:55;7.83;;;7.00;;
3875;SDS011;1953;51.222;6.624;2023-05-03T16:55:39;7.13;;;6.43;;
3875;SDS011;1953;51.222;6.624;2023-05-03T17:00:22;7.77;;;6.63;;
3875;SDS011;1953;51.222;6.624;2023-05-03T17:05:05;14.10;;;8.13;;
3875;SDS011;1953;51.222;6.624;2023-05-03T17:09:48;8.10;;;6.97;;
3875;SDS011;1953;51.222;6.624;2023-05-03T17:14:33;9.30;;;6.90;;
3875;SDS011;1953;51.222;6.624;2023-05-03T17:19:16;10.30;;;8.10;;
3875;SDS011;1953;51.222;6.624;2023-05-03T17:23:59;10.87;;;7.83;;
3875;SDS011;1953;51.222;6.624;2023-05-03T17:28:41;10.43;;;8.10;;
3875;SDS011;1953;51.222;6.624;2023-05-03T17:33:26;12.27;;;7.80;;
3875;SDS011;1953;51.222;6.624;2023-05-03T17:38:08;9.00;;;7.40;;
3875;SDS011;1953;51.222;6.624;2023-05-03T17:42:52;8.07;;;7.13;;
3875;SDS011;1953;51.222;6.624;2023-05-03T17:47:34;11.27;;;8.33;;
3875;SDS011;1953;51.222;6.624;2023-05-03T17:52:18;11.47;;;8.10;;
3875;SDS011;1953;51.222;6.624;2023-05-03T17:57:01;15.10;;;8.20;;
3875;SDS011;1953;51.222;6.624;2023-05-03T18:01:43;10.33;;;7.47;;
3875;SDS011;1953;51.222;6.624;2023-05-03T18:06:27;10.37;;;6.80;;
3875;SDS011;1953;51.222;6.624;2023-05-03T18:11:11;8.83;;;7.00;;
3875;SDS011;1953;51.222;6.624;2023-05-03T18:15:54;9.90;;;6.87;;
3875;SDS011;1953;51.222;6.624;2023-05-03T18:20:36;11.77;;;7.57;;
3875;SDS011;1953;51.222;6.624;2023-05-03T18:25:19;9.20;;;6.10;;
3875;SDS011;1953;51.222;6.624;2023-05-03T18:30:04;7.97;;;7.00;;
3875;SDS011;1953;51.222;6.624;2023-05-03T18:34:47;9.60;;;6.60;;
3875;SDS011;1953;51.222;6.624;2023-05-03T18:39:29;12.07;;;7.13;;
3875;SDS011;1953;51.222;6.624;2023-05-03T18:44:13;14.60;;;7.47;;
3875;SDS011;1953;51.222;6.624;2023-05-03T18:48:57;13.77;;;8.30;;
3875;SDS011;1953;51.222;6.624;2023-05-03T18:53:40;11.10;;;7.50;;
3875;SDS011;1953;51.222;6.624;2023-05-03T18:58:23;13.27;;;7.23;;
3875;SDS011;1953;51.222;6.624;2023-05-03T19:03:05;12.43;;;6.60;;
3875;SDS011;1953;51.222;6.624;2023-05-03T19:07:49;9.80;;;6.50;;
3875;SDS011;1953;51.222;6.624;2023-05-03T19:12:32;11.90;;;5.83;;
3875;SDS011;1953;51.222;6.624;2023-05-03T19:17:14;9.37;;;6.37;;
3875;SDS011;1953;51.222;6.624;2023-05-03T19:21:57;9.83;;;5.80;;
3875;SDS011;1953;51.222;6.624;2023-05-03T19:26:41;13.53;;;6.43;;
3875;SDS011;1953;51.222;6.624;2023-05-03T19:31:23;8.63;;;6.17;;
3875;SDS011;1953;51.222;6.624;2023-05-03T19:36:10;11.63;;;7.37;;
3875;SDS011;1953;51.222;6.624;2023-05-03T19:40:56;10.73;;;6.27;;
3875;SDS011;1953;51.222;6.624;2023-05-03T19:45:41;12.53;;;7.43;;
3875;SDS011;1953;51.222;6.624;2023-05-03T19:50:24;8.23;;;5.87;;
3875;SDS011;1953;51.222;6.624;2023-05-03T19:55:07;10.10;;;6.90;;
3875;SDS011;1953;51.222;6.624;2023-05-03T19:59:50;18.60;;;7.60;;
3875;SDS011;1953;51.222;6.624;2023-05-03T20:04:34;13.33;;;6.60;;
3875;SDS011;1953;51.222;6.624;2023-05-03T20:09:17;13.17;;;6.60;;
3875;SDS011;1953;51.222;6.624;2023-05-03T20:14:02;11.20;;;6.47;;
3875;SDS011;1953;51.222;6.624;2023-05-03T20:18:45;10.40;;;6.27;;
3875;SDS011;1953;51.222;6.624;2023-05-03T20:23:29;11.13;;;6.90;;
3875;SDS011;1953;51.222;6.624;2023-05-03T20:28:12;10.30;;;6.43;;
3875;SDS011;1953;51.222;6.624;2023-05-03T20:32:55;10.93;;;6.73;;
3875;SDS011;1953;51.222;6.624;2023-05-03T20:37:37;9.30;;;6.50;;
3875;SDS011;1953;51.222;6.624;2023-05-03T20:42:21;9.23;;;7.30;;
3875;SDS011;1953;51.222;6.624;2023-05-03T20:47:04;10.60;;;6.47;;
3875;SDS011;1953;51.222;6.624;2023-05-03T20:51:47;16.83;;;7.20;;
3875;SDS011;1953;51.222;6.624;2023-05-03T20:56:30;8.50;;;6.60;;
3875;SDS011;1953;51.222;6.624;2023-05-03T21:01:14;10.20;;;6.40;;
3875;SDS011;1953;51.222;6.624;2023-05-03T21:05:57;13.30;;;7.57;;
3875;SDS011;1953;51.222;6.624;2023-05-03T21:10:39;9.40;;;6.33;;
3875;SDS011;1953;51.222;6.624;2023-05-03T21:15:22;16.17;;;6.03;;
3875;SDS011;1953;51.222;6.624;2023-05-03T21:20:07;10.70;;;6.87;;
3875;SDS011;1953;51.222;6.624;2023-05-03T21:24:51;10.90;;;6.90;;
3875;SDS011;1953;51.222;6.624;2023-05-03T21:29:33;11.90;;;6.93;;
3875;SDS011;1953;51.222;6.624;2023-05-03T21:34:16;9.03;;;6.90;;
3875;SDS011;1953;51.222;6.624;2023-05-03T21:39:00;9.97;;;7.37;;
3875;SDS011;1953;51.222;6.624;2023-05-03T21:43:42;13.80;;;7.50;;
3875;SDS011;1953;51.222;6.624;2023-05-03T21:48:25;12.27;;;7.87;;
3875;SDS011;1953;51.222;6.624;2023-05-03T21:53:08;14.63;;;8.23;;
3875;SDS011;1953;51.222;6.624;2023-05-03T21:57:52;16.23;;;8.50;;
3875;SDS011;1953;51.222;6.624;2023-05-03T22:02:34;17.13;;;8.90;;
3875;SDS011;1953;51.222;6.624;2023-05-03T22:07:17;13.40;;;9.07;;
3875;SDS011;1953;51.222;6.624;2023-05-03T22:12:00;17.90;;;8.90;;
3875;SDS011;1953;51.222;6.624;2023-05-03T22:16:43;13.80;;;8.57;;
3875;SDS011;1953;51.222;6.624;2023-05-03T22:21:26;14.43;;;8.43;;
3875;SDS011;1953;51.222;6.624;2023-05-03T22:26:08;12.97;;;8.73;;
3875;SDS011;1953;51.222;6.624;2023-05-03T22:30:51;12.47;;;8.47;;
3875;SDS011;1953;51.222;6.624;2023-05-03T22:35:35;13.47;;;8.40;;
3875;SDS011;1953;51.222;6.624;2023-05-03T22:40:17;13.80;;;8.13;;
3875;SDS011;1953;51.222;6.624;2023-05-03T22:45:00;16.03;;;8.97;;
3875;SDS011;1953;51.222;6.624;2023-05-03T22:49:43;20.00;;;9.37;;
3875;SDS011;1953;51.222;6.624;2023-05-03T22:54:26;15.00;;;8.90;;
3875;SDS011;1953;51.222;6.624;2023-05-03T22:59:09;12.70;;;7.90;;
3875;SDS011;1953;51.222;6.624;2023-05-03T23:03:52;14.30;;;8.43;;
3875;SDS011;1953;51.222;6.624;2023-05-03T23:08:34;15.30;;;8.73;;
3875;SDS011;1953;51.222;6.624;2023-05-03T23:13:18;22.90;;;8.07;;
3875;SDS011;1953;51.222;6.624;2023-05-03T23:18:00;15.80;;;8.17;;
3875;SDS011;1953;51.222;6.624;2023-05-03T23:22:43;20.10;;;9.00;;
3875;SDS011;1953;51.222;6.624;2023-05-03T23:27:26;11.80;;;7.50;;
3875;SDS011;1953;51.222;6.624;2023-05-03T23:32:10;13.07;;;7.77;;
3875;SDS011;1953;51.222;6.624;2023-05-03T23:36:52;11.70;;;8.10;;
3875;SDS011;1953;51.222;6.624;2023-05-03T23:41:35;13.13;;;7.87;;
3875;SDS011;1953;51.222;6.624;2023-05-03T23:46:17;10.37;;;8.03;;
3875;SDS011;1953;51.222;6.624;2023-05-03T23:51:01;22.30;;;8.67;;
3875;SDS011;1953;51.222;6.624;2023-05-03T23:55:44;13.40;;;8.30;;
